sensor_id;sensor_type;location;lat;lon;timestamp;temperature;humidity
31979;DHT22;18502;43.574;1.276;2024-01-16T00:01:43;12.10;99.90
31979;DHT22;18502;43.574;1.276;2024-01-16T00:04:09;12.20;99.90
31979;DHT22;18502;43.574;1.276;2024-01-16T00:06:42;12.20;99.90
31979;DHT22;18502;43.574;1.276;2024-01-16T00:09:08;12.20;99.90
31979;DHT22;18502;43.574;1.276;2024-01-16T00:11:40;12.30;99.90
31979;DHT22;18502;43.574;1.276;2024-01-16T00:14:06;12.30;99.90
31979;DHT22;18502;43.574;1.276;2024-01-16T00:16:32;12.30;99.90
31979;DHT22;18502;43.574;1.276;2024-01-16T00:18:57;12.30;99.90
31979;DHT22;18502;43.574;1.276;2024-01-16T00:21:23;12.30;99.90
31979;DHT22;18502;43.574;1.276;2024-01-16T00:23:49;12.20;99.90
31979;DHT22;18502;43.574;1.276;2024-01-16T00:26:21;12.20;99.90
31979;DHT22;18502;43.574;1.276;2024-01-16T00:28:47;12.30;99.90
31979;DHT22;18502;43.574;1.276;2024-01-16T00:31:13;12.30;99.90
31979;DHT22;18502;43.574;1.276;2024-01-16T00:33:39;12.30;99.90
31979;DHT22;18502;43.574;1.276;2024-01-16T00:36:05;12.30;99.90
31979;DHT22;18502;43.574;1.276;2024-01-16T00:38:34;12.30;99.90
31979;DHT22;18502;43.574;1.276;2024-01-16T00:41:00;12.30;99.90
31979;DHT22;18502;43.574;1.276;2024-01-16T00:43:26;12.20;99.90
31979;DHT22;18502;43.574;1.276;2024-01-16T00:45:51;12.20;99.90
31979;DHT22;18502;43.574;1.276;2024-01-16T00:48:17;12.20;99.90
31979;DHT22;18502;43.574;1.276;2024-01-16T00:50:44;12.20;99.90
31979;DHT22;18502;43.574;1.276;2024-01-16T00:53:11;12.20;99.90
31979;DHT22;18502;43.574;1.276;2024-01-16T00:55:37;12.20;99.90
31979;DHT22;18502;43.574;1.276;2024-01-16T00:58:03;12.20;99.90
31979;DHT22;18502;43.574;1.276;2024-01-16T01:00:28;12.10;99.90
31979;DHT22;18502;43.574;1.276;2024-01-16T01:02:57;12.10;99.90
31979;DHT22;18502;43.574;1.276;2024-01-16T01:05:24;12.10;99.90
31979;DHT22;18502;43.574;1.276;2024-01-16T01:07:54;12.20;99.90
31979;DHT22;18502;43.574;1.276;2024-01-16T01:10:20;12.10;99.90
31979;DHT22;18502;43.574;1.276;2024-01-16T01:12:46;12.10;99.90
31979;DHT22;18502;43.574;1.276;2024-01-16T01:15:11;12.10;99.90
31979;DHT22;18502;43.574;1.276;2024-01-16T01:17:39;12.10;99.90
31979;DHT22;18502;43.574;1.276;2024-01-16T01:20:06;12.10;99.90
31979;DHT22;18502;43.574;1.276;2024-01-16T01:22:32;12.20;99.90
31979;DHT22;18502;43.574;1.276;2024-01-16T01:24:57;12.20;99.90
31979;DHT22;18502;43.574;1.276;2024-01-16T01:27:23;12.20;99.90
31979;DHT22;18502;43.574;1.276;2024-01-16T01:29:49;12.20;99.90
31979;DHT22;18502;43.574;1.276;2024-01-16T01:32:14;12.20;99.90
31979;DHT22;18502;43.574;1.276;2024-01-16T01:34:43;12.30;99.90
31979;DHT22;18502;43.574;1.276;2024-01-16T01:37:08;12.30;99.90
31979;DHT22;18502;43.574;1.276;2024-01-16T01:39:34;12.30;99.90
31979;DHT22;18502;43.574;1.276;2024-01-16T01:42:00;12.30;99.90
31979;DHT22;18502;43.574;1.276;2024-01-16T01:44:26;12.30;99.90
31979;DHT22;18502;43.574;1.276;2024-01-16T01:46:54;12.30;99.90
31979;DHT22;18502;43.574;1.276;2024-01-16T01:49:22;12.30;99.90
31979;DHT22;18502;43.574;1.276;2024-01-16T01:51:48;12.30;99.90
31979;DHT22;18502;43.574;1.276;2024-01-16T01:54:15;12.30;99.90
31979;DHT22;18502;43.574;1.276;2024-01-16T01:56:44;12.30;99.90
31979;DHT22;18502;43.574;1.276;2024-01-16T01:59:10;12.30;99.90
31979;DHT22;18502;43.574;1.276;2024-01-16T02:01:36;12.30;99.90
31979;DHT22;18502;43.574;1.276;2024-01-16T02:04:02;12.20;99.90
31979;DHT22;18502;43.574;1.276;2024-01-16T02:06:29;12.20;99.90
31979;DHT22;18502;43.574;1.276;2024-01-16T02:08:55;12.20;99.90
31979;DHT22;18502;43.574;1.276;2024-01-16T02:11:21;12.20;99.90
31979;DHT22;18502;43.574;1.276;2024-01-16T02:13:47;12.30;99.90
31979;DHT22;18502;43.574;1.276;2024-01-16T02:16:20;12.30;99.90
31979;DHT22;18502;43.574;1.276;2024-01-16T02:18:46;12.30;99.90
31979;DHT22;18502;43.574;1.276;2024-01-16T02:21:13;12.30;99.90
31979;DHT22;18502;43.574;1.276;2024-01-16T02:23:42;12.30;99.90
31979;DHT22;18502;43.574;1.276;2024-01-16T02:26:07;12.30;99.90
31979;DHT22;18502;43.574;1.276;2024-01-16T02:28:33;12.30;99.90
31979;DHT22;18502;43.574;1.276;2024-01-16T02:30:59;12.30;99.90
31979;DHT22;18502;43.574;1.276;2024-01-16T02:33:24;12.30;99.90
31979;DHT22;18502;43.574;1.276;2024-01-16T02:35:50;12.30;99.90
31979;DHT22;18502;43.574;1.276;2024-01-16T02:38:15;12.30;99.90
31979;DHT22;18502;43.574;1.276;2024-01-16T02:40:41;12.40;99.90
31979;DHT22;18502;43.574;1.276;2024-01-16T02:43:07;12.40;99.90
31979;DHT22;18502;43.574;1.276;2024-01-16T02:45:33;12.40;99.90
31979;DHT22;18502;43.574;1.276;2024-01-16T02:47:59;12.30;99.90
31979;DHT22;18502;43.574;1.276;2024-01-16T02:50:24;12.40;99.90
31979;DHT22;18502;43.574;1.276;2024-01-16T02:52:50;12.30;99.90
31979;DHT22;18502;43.574;1.276;2024-01-16T02:55:16;12.30;99.90
31979;DHT22;18502;43.574;1.276;2024-01-16T02:57:42;12.30;99.90
31979;DHT22;18502;43.574;1.276;2024-01-16T03:00:07;12.30;99.90
31979;DHT22;18502;43.574;1.276;2024-01-16T03:02:34;12.20;99.90
31979;DHT22;18502;43.574;1.276;2024-01-16T03:04:59;12.30;99.90
31979;DHT22;18502;43.574;1.276;2024-01-16T03:07:25;12.30;99.90
31979;DHT22;18502;43.574;1.276;2024-01-16T03:09:51;12.20;99.90
31979;DHT22;18502;43.574;1.276;2024-01-16T03:12:16;12.20;99.90
31979;DHT22;18502;43.574;1.276;2024-01-16T03:14:42;12.20;99.90
31979;DHT22;18502;43.574;1.276;2024-01-16T03:17:08;12.20;99.90
31979;DHT22;18502;43.574;1.276;2024-01-16T03:19:34;12.20;99.90
31979;DHT22;18502;43.574;1.276;2024-01-16T03:21:59;12.30;99.90
31979;DHT22;18502;43.574;1.276;2024-01-16T03:24:25;12.30;99.90
31979;DHT22;18502;43.574;1.276;2024-01-16T03:26:51;12.30;99.90
31979;DHT22;18502;43.574;1.276;2024-01-16T03:29:17;12.30;99.90
31979;DHT22;18502;43.574;1.276;2024-01-16T03:31:43;12.20;99.90
31979;DHT22;18502;43.574;1.276;2024-01-16T03:34:08;12.20;99.90
31979;DHT22;18502;43.574;1.276;2024-01-16T03:36:36;12.20;99.90
31979;DHT22;18502;43.574;1.276;2024-01-16T03:39:02;12.20;99.90
31979;DHT22;18502;43.574;1.276;2024-01-16T03:41:27;12.20;99.90
31979;DHT22;18502;43.574;1.276;2024-01-16T03:43:53;12.20;99.90
31979;DHT22;18502;43.574;1.276;2024-01-16T03:46:22;12.30;99.90
31979;DHT22;18502;43.574;1.276;2024-01-16T03:48:48;12.30;99.90
31979;DHT22;18502;43.574;1.276;2024-01-16T03:51:13;12.20;99.90
31979;DHT22;18502;43.574;1.276;2024-01-16T03:53:41;12.20;99.90
31979;DHT22;18502;43.574;1.276;2024-01-16T03:56:07;12.10;99.90
31979;DHT22;18502;43.574;1.276;2024-01-16T03:58:35;12.10;99.90
31979;DHT22;18502;43.574;1.276;2024-01-16T04:01:01;12.20;99.90
31979;DHT22;18502;43.574;1.276;2024-01-16T04:03:26;12.10;99.90
31979;DHT22;18502;43.574;1.276;2024-01-16T04:05:52;12.10;99.90
31979;DHT22;18502;43.574;1.276;2024-01-16T04:08:17;12.10;99.90
31979;DHT22;18502;43.574;1.276;2024-01-16T04:10:43;12.00;99.90
31979;DHT22;18502;43.574;1.276;2024-01-16T04:13:09;12.00;99.90
31979;DHT22;18502;43.574;1.276;2024-01-16T04:15:38;12.00;99.90
31979;DHT22;18502;43.574;1.276;2024-01-16T04:18:04;11.90;99.90
31979;DHT22;18502;43.574;1.276;2024-01-16T04:20:29;11.90;99.90
31979;DHT22;18502;43.574;1.276;2024-01-16T04:22:56;12.00;99.90
31979;DHT22;18502;43.574;1.276;2024-01-16T04:25:21;12.00;99.90
31979;DHT22;18502;43.574;1.276;2024-01-16T04:27:47;12.00;99.90
31979;DHT22;18502;43.574;1.276;2024-01-16T04:30:13;12.00;99.90
31979;DHT22;18502;43.574;1.276;2024-01-16T04:32:39;12.00;99.90
31979;DHT22;18502;43.574;1.276;2024-01-16T04:35:04;12.00;99.90
31979;DHT22;18502;43.574;1.276;2024-01-16T04:37:30;11.90;99.90
31979;DHT22;18502;43.574;1.276;2024-01-16T04:39:56;11.90;99.90
31979;DHT22;18502;43.574;1.276;2024-01-16T04:42:23;11.80;99.90
31979;DHT22;18502;43.574;1.276;2024-01-16T04:44:49;11.80;99.90
31979;DHT22;18502;43.574;1.276;2024-01-16T04:47:14;11.80;99.90
31979;DHT22;18502;43.574;1.276;2024-01-16T04:49:42;11.80;99.90
31979;DHT22;18502;43.574;1.276;2024-01-16T04:52:07;11.80;99.90
31979;DHT22;18502;43.574;1.276;2024-01-16T04:54:33;11.80;99.90
31979;DHT22;18502;43.574;1.276;2024-01-16T04:56:59;11.70;99.90
31979;DHT22;18502;43.574;1.276;2024-01-16T04:59:24;11.80;99.90
31979;DHT22;18502;43.574;1.276;2024-01-16T05:01:51;11.80;99.90
31979;DHT22;18502;43.574;1.276;2024-01-16T05:04:16;11.70;99.90
31979;DHT22;18502;43.574;1.276;2024-01-16T05:06:42;11.70;99.90
31979;DHT22;18502;43.574;1.276;2024-01-16T05:09:08;11.70;99.90
31979;DHT22;18502;43.574;1.276;2024-01-16T05:11:35;11.70;99.90
31979;DHT22;18502;43.574;1.276;2024-01-16T05:14:00;11.60;99.90
31979;DHT22;18502;43.574;1.276;2024-01-16T05:16:27;11.60;99.90
31979;DHT22;18502;43.574;1.276;2024-01-16T05:18:53;11.70;99.90
31979;DHT22;18502;43.574;1.276;2024-01-16T05:21:20;11.70;99.90
31979;DHT22;18502;43.574;1.276;2024-01-16T05:23:46;11.70;99.90
31979;DHT22;18502;43.574;1.276;2024-01-16T05:26:12;11.60;99.90
31979;DHT22;18502;43.574;1.276;2024-01-16T05:28:38;11.60;99.90
31979;DHT22;18502;43.574;1.276;2024-01-16T05:31:04;11.60;99.90
31979;DHT22;18502;43.574;1.276;2024-01-16T05:33:30;11.50;99.90
31979;DHT22;18502;43.574;1.276;2024-01-16T05:35:57;11.50;99.90
31979;DHT22;18502;43.574;1.276;2024-01-16T05:38:22;11.50;99.90
31979;DHT22;18502;43.574;1.276;2024-01-16T05:40:48;11.40;99.90
31979;DHT22;18502;43.574;1.276;2024-01-16T05:43:14;11.40;99.90
31979;DHT22;18502;43.574;1.276;2024-01-16T05:45:40;11.40;99.90
31979;DHT22;18502;43.574;1.276;2024-01-16T05:48:06;11.40;99.90
31979;DHT22;18502;43.574;1.276;2024-01-16T05:50:34;11.40;99.90
31979;DHT22;18502;43.574;1.276;2024-01-16T05:53:00;11.30;99.90
31979;DHT22;18502;43.574;1.276;2024-01-16T05:55:25;11.30;99.90
31979;DHT22;18502;43.574;1.276;2024-01-16T05:57:51;11.40;99.90
31979;DHT22;18502;43.574;1.276;2024-01-16T06:00:17;11.40;99.90
31979;DHT22;18502;43.574;1.276;2024-01-16T06:02:44;11.40;99.90
31979;DHT22;18502;43.574;1.276;2024-01-16T06:05:10;11.30;99.90
31979;DHT22;18502;43.574;1.276;2024-01-16T06:07:35;11.40;99.90
31979;DHT22;18502;43.574;1.276;2024-01-16T06:10:01;11.30;99.90
31979;DHT22;18502;43.574;1.276;2024-01-16T06:12:27;11.30;99.90
31979;DHT22;18502;43.574;1.276;2024-01-16T06:14:53;11.30;99.90
31979;DHT22;18502;43.574;1.276;2024-01-16T06:17:18;11.30;99.90
31979;DHT22;18502;43.574;1.276;2024-01-16T06:19:44;11.30;99.90
31979;DHT22;18502;43.574;1.276;2024-01-16T06:22:09;11.20;99.90
31979;DHT22;18502;43.574;1.276;2024-01-16T06:24:36;11.30;99.90
31979;DHT22;18502;43.574;1.276;2024-01-16T06:27:04;11.30;99.90
31979;DHT22;18502;43.574;1.276;2024-01-16T06:29:31;11.30;99.90
31979;DHT22;18502;43.574;1.276;2024-01-16T06:31:57;11.30;99.90
31979;DHT22;18502;43.574;1.276;2024-01-16T06:34:23;11.30;99.90
31979;DHT22;18502;43.574;1.276;2024-01-16T06:36:48;11.30;99.90
31979;DHT22;18502;43.574;1.276;2024-01-16T06:39:14;11.30;99.90
31979;DHT22;18502;43.574;1.276;2024-01-16T06:41:43;11.30;99.90
31979;DHT22;18502;43.574;1.276;2024-01-16T06:44:08;11.20;99.90
31979;DHT22;18502;43.574;1.276;2024-01-16T06:46:34;11.20;99.90
31979;DHT22;18502;43.574;1.276;2024-01-16T06:49:00;11.20;99.90
31979;DHT22;18502;43.574;1.276;2024-01-16T06:51:26;11.10;99.90
31979;DHT22;18502;43.574;1.276;2024-01-16T06:53:52;11.10;99.90
31979;DHT22;18502;43.574;1.276;2024-01-16T06:56:18;11.00;99.90
31979;DHT22;18502;43.574;1.276;2024-01-16T06:58:43;11.00;99.90
31979;DHT22;18502;43.574;1.276;2024-01-16T07:01:09;11.00;99.90
31979;DHT22;18502;43.574;1.276;2024-01-16T07:03:35;11.10;99.90
31979;DHT22;18502;43.574;1.276;2024-01-16T07:06:01;11.20;99.90
31979;DHT22;18502;43.574;1.276;2024-01-16T07:08:28;11.20;99.90
31979;DHT22;18502;43.574;1.276;2024-01-16T07:10:53;11.10;99.90
31979;DHT22;18502;43.574;1.276;2024-01-16T07:13:19;11.10;99.90
31979;DHT22;18502;43.574;1.276;2024-01-16T07:15:45;11.00;99.90
31979;DHT22;18502;43.574;1.276;2024-01-16T07:18:10;11.00;99.90
31979;DHT22;18502;43.574;1.276;2024-01-16T07:20:36;11.10;99.90
31979;DHT22;18502;43.574;1.276;2024-01-16T07:23:02;11.10;99.90
31979;DHT22;18502;43.574;1.276;2024-01-16T07:25:28;11.10;99.90
31979;DHT22;18502;43.574;1.276;2024-01-16T07:27:53;11.10;99.90
31979;DHT22;18502;43.574;1.276;2024-01-16T07:30:19;11.10;99.90
31979;DHT22;18502;43.574;1.276;2024-01-16T07:32:45;11.10;99.90
31979;DHT22;18502;43.574;1.276;2024-01-16T07:35:10;11.20;99.90
31979;DHT22;18502;43.574;1.276;2024-01-16T07:37:36;11.20;99.90
31979;DHT22;18502;43.574;1.276;2024-01-16T07:40:02;11.20;99.90
31979;DHT22;18502;43.574;1.276;2024-01-16T07:42:31;11.20;99.90
31979;DHT22;18502;43.574;1.276;2024-01-16T07:45:00;11.20;99.90
31979;DHT22;18502;43.574;1.276;2024-01-16T07:47:32;11.10;99.90
31979;DHT22;18502;43.574;1.276;2024-01-16T07:49:59;11.10;99.90
31979;DHT22;18502;43.574;1.276;2024-01-16T07:52:26;11.20;99.90
31979;DHT22;18502;43.574;1.276;2024-01-16T07:54:52;11.20;99.90
31979;DHT22;18502;43.574;1.276;2024-01-16T07:57:18;11.20;99.90
31979;DHT22;18502;43.574;1.276;2024-01-16T07:59:44;11.30;99.90
31979;DHT22;18502;43.574;1.276;2024-01-16T08:02:10;11.30;99.90
31979;DHT22;18502;43.574;1.276;2024-01-16T08:04:36;11.40;99.90
31979;DHT22;18502;43.574;1.276;2024-01-16T08:07:01;11.50;99.90
31979;DHT22;18502;43.574;1.276;2024-01-16T08:09:27;11.70;99.90
31979;DHT22;18502;43.574;1.276;2024-01-16T08:11:53;11.70;99.90
31979;DHT22;18502;43.574;1.276;2024-01-16T08:14:19;11.70;99.90
31979;DHT22;18502;43.574;1.276;2024-01-16T08:16:44;11.70;99.90
31979;DHT22;18502;43.574;1.276;2024-01-16T08:19:10;11.70;99.90
31979;DHT22;18502;43.574;1.276;2024-01-16T08:21:35;11.70;99.90
31979;DHT22;18502;43.574;1.276;2024-01-16T08:24:01;11.70;99.90
31979;DHT22;18502;43.574;1.276;2024-01-16T08:26:28;11.80;99.90
31979;DHT22;18502;43.574;1.276;2024-01-16T08:28:54;11.80;99.90
31979;DHT22;18502;43.574;1.276;2024-01-16T08:31:20;11.80;99.90
31979;DHT22;18502;43.574;1.276;2024-01-16T08:33:45;11.80;99.90
31979;DHT22;18502;43.574;1.276;2024-01-16T08:36:11;11.90;99.90
31979;DHT22;18502;43.574;1.276;2024-01-16T08:38:37;12.10;99.90
31979;DHT22;18502;43.574;1.276;2024-01-16T08:41:02;12.60;99.90
31979;DHT22;18502;43.574;1.276;2024-01-16T08:43:33;12.60;99.90
31979;DHT22;18502;43.574;1.276;2024-01-16T08:45:59;12.50;99.90
31979;DHT22;18502;43.574;1.276;2024-01-16T08:48:24;12.40;99.90
31979;DHT22;18502;43.574;1.276;2024-01-16T08:50:51;12.40;99.90
31979;DHT22;18502;43.574;1.276;2024-01-16T08:53:17;12.50;99.90
31979;DHT22;18502;43.574;1.276;2024-01-16T08:55:42;12.50;99.90
31979;DHT22;18502;43.574;1.276;2024-01-16T08:58:08;12.40;99.90
31979;DHT22;18502;43.574;1.276;2024-01-16T09:00:34;12.40;99.90
31979;DHT22;18502;43.574;1.276;2024-01-16T09:02:59;12.40;99.90
31979;DHT22;18502;43.574;1.276;2024-01-16T09:05:25;12.50;99.90
31979;DHT22;18502;43.574;1.276;2024-01-16T09:07:51;12.60;99.90
31979;DHT22;18502;43.574;1.276;2024-01-16T09:10:18;12.60;99.90
31979;DHT22;18502;43.574;1.276;2024-01-16T09:12:44;12.70;99.90
31979;DHT22;18502;43.574;1.276;2024-01-16T09:15:10;12.50;99.90
31979;DHT22;18502;43.574;1.276;2024-01-16T09:17:36;12.60;99.90
31979;DHT22;18502;43.574;1.276;2024-01-16T09:20:01;12.50;99.90
31979;DHT22;18502;43.574;1.276;2024-01-16T09:22:27;12.60;99.90
31979;DHT22;18502;43.574;1.276;2024-01-16T09:24:53;12.50;99.90
31979;DHT22;18502;43.574;1.276;2024-01-16T09:27:18;12.70;99.90
31979;DHT22;18502;43.574;1.276;2024-01-16T09:29:45;12.80;99.90
31979;DHT22;18502;43.574;1.276;2024-01-16T09:32:10;12.90;99.90
31979;DHT22;18502;43.574;1.276;2024-01-16T09:34:36;13.10;99.90
31979;DHT22;18502;43.574;1.276;2024-01-16T09:37:02;13.70;99.90
31979;DHT22;18502;43.574;1.276;2024-01-16T09:39:28;13.60;99.90
31979;DHT22;18502;43.574;1.276;2024-01-16T09:41:57;13.50;99.90
31979;DHT22;18502;43.574;1.276;2024-01-16T09:44:25;13.90;99.90
31979;DHT22;18502;43.574;1.276;2024-01-16T09:46:52;14.50;99.90
31979;DHT22;18502;43.574;1.276;2024-01-16T09:49:18;13.80;99.90
31979;DHT22;18502;43.574;1.276;2024-01-16T09:51:45;13.20;99.90
31979;DHT22;18502;43.574;1.276;2024-01-16T09:54:11;13.60;99.90
31979;DHT22;18502;43.574;1.276;2024-01-16T09:56:42;13.80;99.90
31979;DHT22;18502;43.574;1.276;2024-01-16T09:59:09;13.90;99.90
31979;DHT22;18502;43.574;1.276;2024-01-16T10:01:37;14.30;99.90
31979;DHT22;18502;43.574;1.276;2024-01-16T10:04:03;15.20;99.90
31979;DHT22;18502;43.574;1.276;2024-01-16T10:06:29;14.60;99.90
31979;DHT22;18502;43.574;1.276;2024-01-16T10:08:57;14.90;99.90
31979;DHT22;18502;43.574;1.276;2024-01-16T10:11:22;14.90;99.90
31979;DHT22;18502;43.574;1.276;2024-01-16T10:13:49;15.40;99.90
31979;DHT22;18502;43.574;1.276;2024-01-16T10:16:15;15.80;99.90
31979;DHT22;18502;43.574;1.276;2024-01-16T10:18:40;15.50;99.90
31979;DHT22;18502;43.574;1.276;2024-01-16T10:21:22;15.00;99.90
31979;DHT22;18502;43.574;1.276;2024-01-16T10:23:49;15.90;99.90
31979;DHT22;18502;43.574;1.276;2024-01-16T10:26:14;15.80;99.90
31979;DHT22;18502;43.574;1.276;2024-01-16T10:28:42;16.10;99.90
31979;DHT22;18502;43.574;1.276;2024-01-16T10:31:10;16.90;99.90
31979;DHT22;18502;43.574;1.276;2024-01-16T10:33:36;16.00;99.90
31979;DHT22;18502;43.574;1.276;2024-01-16T10:36:13;15.50;99.90
31979;DHT22;18502;43.574;1.276;2024-01-16T10:38:40;14.80;99.90
31979;DHT22;18502;43.574;1.276;2024-01-16T10:43:36;14.70;99.90
31979;DHT22;18502;43.574;1.276;2024-01-16T10:46:15;14.70;99.90
31979;DHT22;18502;43.574;1.276;2024-01-16T10:48:43;16.50;99.90
31979;DHT22;18502;43.574;1.276;2024-01-16T10:51:12;16.80;99.90
31979;DHT22;18502;43.574;1.276;2024-01-16T10:53:42;17.40;99.90
31979;DHT22;18502;43.574;1.276;2024-01-16T10:56:11;15.80;99.90
31979;DHT22;18502;43.574;1.276;2024-01-16T10:58:40;14.70;99.90
31979;DHT22;18502;43.574;1.276;2024-01-16T11:01:14;14.50;99.90
31979;DHT22;18502;43.574;1.276;2024-01-16T11:03:47;14.70;99.90
31979;DHT22;18502;43.574;1.276;2024-01-16T11:06:15;15.00;99.90
31979;DHT22;18502;43.574;1.276;2024-01-16T11:08:42;14.70;99.90
31979;DHT22;18502;43.574;1.276;2024-01-16T11:11:08;14.70;99.90
31979;DHT22;18502;43.574;1.276;2024-01-16T11:13:35;14.80;99.90
31979;DHT22;18502;43.574;1.276;2024-01-16T11:16:04;14.90;99.90
31979;DHT22;18502;43.574;1.276;2024-01-16T11:18:31;14.90;99.90
31979;DHT22;18502;43.574;1.276;2024-01-16T11:21:08;15.30;99.90
31979;DHT22;18502;43.574;1.276;2024-01-16T11:23:36;15.70;99.90
31979;DHT22;18502;43.574;1.276;2024-01-16T11:28:46;16.10;99.90
31979;DHT22;18502;43.574;1.276;2024-01-16T11:31:32;16.10;99.90
31979;DHT22;18502;43.574;1.276;2024-01-16T11:33:59;15.60;99.90
31979;DHT22;18502;43.574;1.276;2024-01-16T11:39:17;16.00;99.90
31979;DHT22;18502;43.574;1.276;2024-01-16T11:41:53;16.40;99.90
31979;DHT22;18502;43.574;1.276;2024-01-16T11:44:42;16.00;99.90
31979;DHT22;18502;43.574;1.276;2024-01-16T11:47:08;15.30;99.90
31979;DHT22;18502;43.574;1.276;2024-01-16T11:49:35;15.20;99.90
31979;DHT22;18502;43.574;1.276;2024-01-16T11:52:01;15.30;99.90
31979;DHT22;18502;43.574;1.276;2024-01-16T11:54:27;15.50;99.90
31979;DHT22;18502;43.574;1.276;2024-01-16T11:59:59;15.60;99.90
31979;DHT22;18502;43.574;1.276;2024-01-16T12:05:12;15.50;99.90
31979;DHT22;18502;43.574;1.276;2024-01-16T12:07:49;15.70;99.90
31979;DHT22;18502;43.574;1.276;2024-01-16T12:10:16;15.80;99.90
31979;DHT22;18502;43.574;1.276;2024-01-16T12:12:43;16.60;99.90
31979;DHT22;18502;43.574;1.276;2024-01-16T12:15:21;16.00;99.90
31979;DHT22;18502;43.574;1.276;2024-01-16T12:18:02;15.60;99.90
31979;DHT22;18502;43.574;1.276;2024-01-16T12:20:32;15.70;99.90
31979;DHT22;18502;43.574;1.276;2024-01-16T12:23:00;15.60;99.90
31979;DHT22;18502;43.574;1.276;2024-01-16T12:25:27;15.90;99.90
31979;DHT22;18502;43.574;1.276;2024-01-16T12:28:00;15.90;99.90
31979;DHT22;18502;43.574;1.276;2024-01-16T12:30:30;16.60;99.90
31979;DHT22;18502;43.574;1.276;2024-01-16T12:33:10;16.50;99.90
31979;DHT22;18502;43.574;1.276;2024-01-16T12:35:37;16.60;99.90
31979;DHT22;18502;43.574;1.276;2024-01-16T12:38:05;15.70;99.90
31979;DHT22;18502;43.574;1.276;2024-01-16T12:40:32;16.30;99.90
31979;DHT22;18502;43.574;1.276;2024-01-16T12:42:59;19.80;99.90
31979;DHT22;18502;43.574;1.276;2024-01-16T12:45:24;22.70;99.90
31979;DHT22;18502;43.574;1.276;2024-01-16T12:47:54;20.10;99.90
31979;DHT22;18502;43.574;1.276;2024-01-16T12:50:24;18.90;99.90
31979;DHT22;18502;43.574;1.276;2024-01-16T12:52:50;17.70;99.90
31979;DHT22;18502;43.574;1.276;2024-01-16T12:55:16;16.60;99.90
31979;DHT22;18502;43.574;1.276;2024-01-16T12:57:43;16.40;99.90
31979;DHT22;18502;43.574;1.276;2024-01-16T13:00:22;16.50;99.90
31979;DHT22;18502;43.574;1.276;2024-01-16T13:02:54;17.40;99.90
31979;DHT22;18502;43.574;1.276;2024-01-16T13:05:24;17.10;99.90
31979;DHT22;18502;43.574;1.276;2024-01-16T13:08:03;16.90;99.90
31979;DHT22;18502;43.574;1.276;2024-01-16T13:10:29;16.40;99.90
31979;DHT22;18502;43.574;1.276;2024-01-16T13:13:17;16.40;99.90
31979;DHT22;18502;43.574;1.276;2024-01-16T13:15:47;16.80;99.90
31979;DHT22;18502;43.574;1.276;2024-01-16T13:18:22;17.00;99.90
31979;DHT22;18502;43.574;1.276;2024-01-16T13:20:59;17.20;99.90
31979;DHT22;18502;43.574;1.276;2024-01-16T13:23:25;16.90;99.90
31979;DHT22;18502;43.574;1.276;2024-01-16T13:25:52;17.30;99.90
31979;DHT22;18502;43.574;1.276;2024-01-16T13:28:19;17.40;99.90
31979;DHT22;18502;43.574;1.276;2024-01-16T13:30:46;17.40;99.90
31979;DHT22;18502;43.574;1.276;2024-01-16T13:33:13;19.00;99.90
31979;DHT22;18502;43.574;1.276;2024-01-16T13:35:43;19.20;99.90
31979;DHT22;18502;43.574;1.276;2024-01-16T13:38:08;22.70;99.90
31979;DHT22;18502;43.574;1.276;2024-01-16T13:40:35;22.30;99.90
31979;DHT22;18502;43.574;1.276;2024-01-16T13:43:02;20.20;99.90
31979;DHT22;18502;43.574;1.276;2024-01-16T13:45:28;19.50;99.90
31979;DHT22;18502;43.574;1.276;2024-01-16T13:47:56;20.20;99.90
31979;DHT22;18502;43.574;1.276;2024-01-16T13:50:23;19.80;99.90
31979;DHT22;18502;43.574;1.276;2024-01-16T13:52:49;18.10;99.90
31979;DHT22;18502;43.574;1.276;2024-01-16T13:55:15;17.90;99.90
31979;DHT22;18502;43.574;1.276;2024-01-16T13:57:41;17.50;99.90
31979;DHT22;18502;43.574;1.276;2024-01-16T14:00:11;17.60;99.90
31979;DHT22;18502;43.574;1.276;2024-01-16T14:02:47;17.60;99.90
31979;DHT22;18502;43.574;1.276;2024-01-16T14:05:15;17.60;99.90
31979;DHT22;18502;43.574;1.276;2024-01-16T14:07:51;18.50;99.90
31979;DHT22;18502;43.574;1.276;2024-01-16T14:10:21;18.00;99.90
31979;DHT22;18502;43.574;1.276;2024-01-16T14:12:48;17.30;99.90
31979;DHT22;18502;43.574;1.276;2024-01-16T14:15:16;16.60;99.90
31979;DHT22;18502;43.574;1.276;2024-01-16T14:17:46;16.60;99.90
31979;DHT22;18502;43.574;1.276;2024-01-16T14:20:13;16.20;99.90
31979;DHT22;18502;43.574;1.276;2024-01-16T14:22:39;16.20;99.90
31979;DHT22;18502;43.574;1.276;2024-01-16T14:25:09;16.00;99.90
31979;DHT22;18502;43.574;1.276;2024-01-16T14:27:39;16.10;99.90
31979;DHT22;18502;43.574;1.276;2024-01-16T14:30:10;16.70;99.90
31979;DHT22;18502;43.574;1.276;2024-01-16T14:32:44;17.20;99.90
31979;DHT22;18502;43.574;1.276;2024-01-16T14:35:11;17.20;99.90
31979;DHT22;18502;43.574;1.276;2024-01-16T14:37:39;16.20;99.90
31979;DHT22;18502;43.574;1.276;2024-01-16T14:40:05;16.20;99.90
31979;DHT22;18502;43.574;1.276;2024-01-16T14:42:54;17.00;99.90
31979;DHT22;18502;43.574;1.276;2024-01-16T14:45:25;18.80;99.90
31979;DHT22;18502;43.574;1.276;2024-01-16T14:47:52;19.10;99.90
31979;DHT22;18502;43.574;1.276;2024-01-16T14:50:21;20.10;99.90
31979;DHT22;18502;43.574;1.276;2024-01-16T14:52:50;18.30;99.90
31979;DHT22;18502;43.574;1.276;2024-01-16T14:55:17;17.00;99.90
31979;DHT22;18502;43.574;1.276;2024-01-16T14:57:43;17.00;99.90
31979;DHT22;18502;43.574;1.276;2024-01-16T15:00:10;17.40;99.90
31979;DHT22;18502;43.574;1.276;2024-01-16T15:02:56;17.70;99.90
31979;DHT22;18502;43.574;1.276;2024-01-16T15:05:22;18.10;99.90
31979;DHT22;18502;43.574;1.276;2024-01-16T15:07:49;19.20;99.90
31979;DHT22;18502;43.574;1.276;2024-01-16T15:10:17;18.40;99.90
31979;DHT22;18502;43.574;1.276;2024-01-16T15:12:44;17.20;99.90
31979;DHT22;18502;43.574;1.276;2024-01-16T15:15:12;16.70;99.90
31979;DHT22;18502;43.574;1.276;2024-01-16T15:17:40;16.60;99.90
31979;DHT22;18502;43.574;1.276;2024-01-16T15:20:06;16.20;99.90
31979;DHT22;18502;43.574;1.276;2024-01-16T15:22:42;15.90;99.90
31979;DHT22;18502;43.574;1.276;2024-01-16T15:25:09;15.60;99.90
31979;DHT22;18502;43.574;1.276;2024-01-16T15:27:35;15.20;99.90
31979;DHT22;18502;43.574;1.276;2024-01-16T15:30:04;14.90;99.90
31979;DHT22;18502;43.574;1.276;2024-01-16T15:32:30;14.80;99.90
31979;DHT22;18502;43.574;1.276;2024-01-16T15:34:57;14.60;99.90
31979;DHT22;18502;43.574;1.276;2024-01-16T15:37:23;14.50;99.90
31979;DHT22;18502;43.574;1.276;2024-01-16T15:39:48;14.40;99.90
31979;DHT22;18502;43.574;1.276;2024-01-16T15:42:14;14.40;99.90
31979;DHT22;18502;43.574;1.276;2024-01-16T15:44:39;14.40;99.90